Time,TemperatureF,DewpointF,PressureIn,WindDirection,WindDirectionDegrees,WindSpeedMPH,WindSpeedGustMPH,Humidity,HourlyPrecipIn,Conditions,Clouds,dailyrainin,SoftwareType,DateUTC
2013-08-05 00:01:00,50.0,49.9,0.00,NW,322,13.8,-999.0,99,0.00,,,-99.99,,2013-08-05 08:01:00,
2013-08-05 00:06:00,50.0,49.9,0.00,NW,322,15.0,-999.0,99,0.00,,,-99.99,,2013-08-05 08:06:00,
2013-08-05 00:11:00,49.9,49.8,0.00,NW,312,15.7,-999.0,99,0.00,,,-99.99,,2013-08-05 08:11:00,
2013-08-05 00:16:00,49.9,49.8,0.00,NW,304,12.2,-999.0,99,0.00,,,-99.99,,2013-08-05 08:16:00,
2013-08-05 00:21:00,49.8,49.8,0.00,NW,313,10.9,-999.0,99,0.00,,,-99.99,,2013-08-05 08:21:00,
2013-08-05 00:26:00,49.8,49.7,0.00,NW,305,16.3,-999.0,99,0.00,,,-99.99,,2013-08-05 08:26:00,
2013-08-05 00:31:00,49.7,49.6,0.00,WNW,288,13.9,-999.0,99,0.00,,,-99.99,,2013-08-05 08:31:00,
2013-08-05 00:36:00,49.6,49.6,0.00,NW,315,14.0,-999.0,99,0.00,,,-99.99,,2013-08-05 08:36:00,
2013-08-05 00:41:00,49.6,49.5,0.00,NW,324,14.4,-999.0,99,0.00,,,-99.99,,2013-08-05 08:41:00,
2013-08-05 00:48:00,49.7,49.6,0.00,NNW,332,13.8,-999.0,99,0.00,,,-99.99,,2013-08-05 08:48:00,
2013-08-05 00:53:00,49.7,49.6,0.00,NW,325,14.0,-999.0,99,0.00,,,-99.99,,2013-08-05 08:53:00,
2013-08-05 00:58:00,49.6,49.5,0.00,NNW,329,13.1,-999.0,99,0.00,,,-99.99,,2013-08-05 08:58:00,
2013-08-05 01:03:00,49.5,49.4,0.00,NW,325,13.1,-999.0,99,0.00,,,-99.99,,2013-08-05 09:03:00,
2013-08-05 01:08:00,49.7,49.6,0.00,NW,322,11.1,-999.0,99,0.00,,,-99.99,,2013-08-05 09:08:00,
2013-08-05 01:13:00,49.6,49.5,0.00,NW,319,12.1,-999.0,99,0.00,,,-99.99,,2013-08-05 09:13:00,
2013-08-05 01:18:00,49.4,49.4,0.00,NW,322,11.9,-999.0,99,0.00,,,-99.99,,2013-08-05 09:18:00,
2013-08-05 01:23:00,49.5,49.5,0.00,NW,320,13.0,-999.0,99,0.00,,,-99.99,,2013-08-05 09:23:00,
2013-08-05 01:28:00,49.5,49.5,0.00,NW,324,11.1,-999.0,99,0.00,,,-99.99,,2013-08-05 09:28:00,
2013-08-05 01:33:00,49.5,49.4,0.00,NW,323,12.8,-999.0,99,0.00,,,-99.99,,2013-08-05 09:33:00,
2013-08-05 01:38:00,49.7,49.7,0.00,NW,323,12.5,-999.0,99,0.00,,,-99.99,,2013-08-05 09:38:00,
2013-08-05 01:43:00,49.7,49.6,0.00,NW,315,11.0,-999.0,99,0.00,,,-99.99,,2013-08-05 09:43:00,
2013-08-05 01:47:00,49.6,49.5,0.00,NW,319,9.6,-999.0,99,0.00,,,-99.99,,2013-08-05 09:47:00,
2013-08-05 01:52:00,49.7,49.6,0.00,WNW,299,10.0,-999.0,99,0.00,,,-99.99,,2013-08-05 09:52:00,
2013-08-05 01:59:00,49.6,49.5,0.00,NW,319,3.7,-999.0,99,0.00,,,-99.99,,2013-08-05 09:59:00,
2013-08-05 02:03:00,49.5,49.4,0.00,NW,307,12.8,-999.0,99,0.00,,,-99.99,,2013-08-05 10:03:00,
2013-08-05 02:09:00,49.6,49.5,0.00,WSW,242,7.8,-999.0,99,0.00,,,-99.99,,2013-08-05 10:09:00,
2013-08-05 02:18:00,49.5,49.5,0.00,WNW,300,9.1,-999.0,99,0.00,,,-99.99,,2013-08-05 10:18:00,
2013-08-05 02:23:00,49.5,49.4,0.00,WNW,290,13.5,-999.0,99,0.00,,,-99.99,,2013-08-05 10:23:00,
2013-08-05 02:28:00,49.5,49.5,0.00,NW,307,4.7,-999.0,99,0.00,,,-99.99,,2013-08-05 10:28:00,
2013-08-05 02:32:00,49.7,49.6,0.00,SW,224,0.3,-999.0,99,0.00,,,-99.99,,2013-08-05 10:32:00,
2013-08-05 02:39:00,49.7,49.7,0.00,SSE,158,1.2,-999.0,99,0.00,,,-99.99,,2013-08-05 10:39:00,
2013-08-05 02:45:00,49.5,49.5,0.00,SSW,213,0.2,-999.0,99,0.00,,,-99.99,,2013-08-05 10:45:00,
2013-08-05 02:50:00,49.7,49.6,0.00,NNW,329,6.3,-999.0,99,0.00,,,-99.99,,2013-08-05 10:50:00,
2013-08-05 02:54:00,49.5,49.5,0.00,SE,131,4.7,-999.0,99,0.00,,,-99.99,,2013-08-05 10:54:00,
2013-08-05 02:59:00,49.6,49.5,0.00,WNW,285,0.8,-999.0,99,0.00,,,-99.99,,2013-08-05 10:59:00,
2013-08-05 03:05:00,49.4,49.3,0.00,West,278,4.4,-999.0,99,0.00,,,-99.99,,2013-08-05 11:05:00,
2013-08-05 03:10:00,49.7,49.7,0.00,SE,127,1.7,-999.0,99,0.00,,,-99.99,,2013-08-05 11:10:00,
2013-08-05 03:14:00,49.7,49.6,0.00,ESE,113,1.4,-999.0,99,0.00,,,-99.99,,2013-08-05 11:14:00,
2013-08-05 03:20:00,49.6,49.6,0.00,NE,51,1.8,-999.0,99,0.00,,,-99.99,,2013-08-05 11:20:00,
2013-08-05 03:25:00,49.6,49.6,0.00,North,0,0.0,-999.0,99,0.00,,,-99.99,,2013-08-05 11:25:00,
2013-08-05 03:30:00,49.6,49.5,0.00,SSE,148,1.5,-999.0,99,0.00,,,-99.99,,2013-08-05 11:30:00,
2013-08-05 03:34:00,49.5,49.5,0.00,South,191,0.8,-999.0,99,0.00,,,-99.99,,2013-08-05 11:34:00,
2013-08-05 03:42:00,49.7,49.7,0.00,SE,124,2.5,-999.0,99,0.00,,,-99.99,,2013-08-05 11:42:00,
2013-08-05 03:48:00,49.7,49.7,0.00,SSW,192,0.5,-999.0,99,0.00,,,-99.99,,2013-08-05 11:48:00,
2013-08-05 03:54:00,49.6,49.6,0.00,NNE,20,2.1,-999.0,99,0.00,,,-99.99,,2013-08-05 11:54:00,
2013-08-05 04:02:00,49.8,49.7,0.00,SE,135,2.2,-999.0,99,0.00,,,-99.99,,2013-08-05 12:02:00,
2013-08-05 04:07:00,49.7,49.7,0.00,NNW,338,1.4,-999.0,99,0.00,,,-99.99,,2013-08-05 12:07:00,
2013-08-05 04:12:00,49.8,49.8,0.00,NNW,347,1.8,-999.0,99,0.00,,,-99.99,,2013-08-05 12:12:00,
2013-08-05 04:17:00,49.8,49.8,0.00,North,10,1.2,-999.0,99,0.00,,,-99.99,,2013-08-05 12:17:00,
2013-08-05 04:23:00,49.7,49.6,0.00,SE,125,0.9,-999.0,99,0.00,,,-99.99,,2013-08-05 12:23:00,
2013-08-05 04:28:00,49.5,49.5,0.00,West,279,3.5,-999.0,99,0.00,,,-99.99,,2013-08-05 12:28:00,
2013-08-05 04:33:00,49.6,49.5,0.00,SW,220,0.3,-999.0,99,0.00,,,-99.99,,2013-08-05 12:33:00,
2013-08-05 04:38:00,49.7,49.6,0.00,SSW,201,4.8,-999.0,99,0.00,,,-99.99,,2013-08-05 12:38:00,
2013-08-05 04:45:00,49.5,49.4,0.00,SSE,150,4.0,-999.0,99,0.00,,,-99.99,,2013-08-05 12:45:00,
2013-08-05 04:49:00,49.5,49.5,0.00,West,269,5.7,-999.0,99,0.00,,,-99.99,,2013-08-05 12:49:00,
2013-08-05 04:55:00,49.7,49.6,0.00,West,279,13.6,-999.0,99,0.00,,,-99.99,,2013-08-05 12:55:00,
2013-08-05 05:00:00,49.3,49.2,0.00,NW,314,17.6,-999.0,99,0.00,,,-99.99,,2013-08-05 13:00:00,
2013-08-05 05:06:00,49.4,49.3,0.00,West,280,12.1,-999.0,99,0.00,,,-99.99,,2013-08-05 13:06:00,
2013-08-05 05:12:00,49.5,49.4,0.00,West,279,12.9,-999.0,99,0.00,,,-99.99,,2013-08-05 13:12:00,
2013-08-05 05:16:00,49.4,49.4,0.00,WNW,302,18.9,-999.0,99,0.00,,,-99.99,,2013-08-05 13:16:00,
2013-08-05 05:23:00,49.3,49.3,0.00,WNW,297,18.2,-999.0,99,0.00,,,-99.99,,2013-08-05 13:23:00,
2013-08-05 05:28:00,49.3,49.2,0.00,NW,304,17.4,-999.0,99,0.00,,,-99.99,,2013-08-05 13:28:00,
2013-08-05 05:34:00,49.3,49.3,0.00,NW,309,20.4,-999.0,99,0.00,,,-99.99,,2013-08-05 13:34:00,
2013-08-05 05:42:00,49.5,49.5,0.00,West,272,11.3,-999.0,99,0.00,,,-99.99,,2013-08-05 13:42:00,
2013-08-05 05:47:00,49.5,49.5,0.00,WNW,291,1.7,-999.0,99,0.00,,,-99.99,,2013-08-05 13:47:00,
2013-08-05 05:54:00,49.3,49.3,0.00,East,85,2.3,-999.0,99,0.00,,,-99.99,,2013-08-05 13:54:00,
2013-08-05 06:03:00,49.1,49.0,0.00,West,263,1.2,-999.0,99,0.00,,,-99.99,,2013-08-05 14:03:00,
2013-08-05 06:10:00,49.2,49.2,0.00,South,169,1.0,-999.0,99,0.00,,,-99.99,,2013-08-05 14:10:00,
2013-08-05 06:16:00,49.3,49.2,0.00,WNW,295,0.8,-999.0,99,0.00,,,-99.99,,2013-08-05 14:16:00,
2013-08-05 06:21:00,49.2,49.1,0.00,SSE,161,1.0,-999.0,99,0.00,,,-99.99,,2013-08-05 14:21:00,
2013-08-05 06:27:00,49.3,49.2,0.00,SSE,148,1.5,-999.0,99,0.00,,,-99.99,,2013-08-05 14:27:00,
2013-08-05 06:32:00,49.2,49.2,0.00,SSE,167,2.4,-999.0,99,0.00,,,-99.99,,2013-08-05 14:32:00,
2013-08-05 06:39:00,49.1,49.1,0.00,SW,227,0.5,-999.0,99,0.00,,,-99.99,,2013-08-05 14:39:00,
2013-08-05 06:46:00,49.2,49.1,0.00,SSE,165,0.9,-999.0,99,0.00,,,-99.99,,2013-08-05 14:46:00,
2013-08-05 06:55:00,49.0,49.0,0.00,South,176,0.7,-999.0,99,0.00,,,-99.99,,2013-08-05 14:55:00,
2013-08-05 07:00:00,49.1,49.1,0.00,ESE,103,2.7,-999.0,99,0.00,,,-99.99,,2013-08-05 15:00:00,
2013-08-05 07:05:00,49.1,49.1,0.00,South,178,2.4,-999.0,99,0.00,,,-99.99,,2013-08-05 15:05:00,
2013-08-05 07:11:00,49.3,49.2,0.00,NNW,327,2.3,-999.0,99,0.00,,,-99.99,,2013-08-05 15:11:00,
2013-08-05 07:16:00,49.1,49.1,0.00,NW,313,2.8,-999.0,99,0.00,,,-99.99,,2013-08-05 15:16:00,
2013-08-05 07:21:00,49.2,49.2,0.00,East,97,1.4,-999.0,99,0.00,,,-99.99,,2013-08-05 15:21:00,
2013-08-05 07:26:00,49.0,49.0,0.00,ESE,114,0.1,-999.0,99,0.00,,,-99.99,,2013-08-05 15:26:00,
2013-08-05 07:33:00,48.9,48.9,0.00,North,3,4.8,-999.0,99,0.00,,,-99.99,,2013-08-05 15:33:00,
2013-08-05 07:37:00,49.0,49.0,0.00,North,11,1.8,-999.0,99,0.00,,,-99.99,,2013-08-05 15:37:00,
2013-08-05 07:44:00,48.9,48.9,0.00,South,173,2.6,-999.0,99,0.00,,,-99.99,,2013-08-05 15:44:00,
2013-08-05 07:49:00,48.9,48.9,0.00,WNW,295,0.2,-999.0,99,0.00,,,-99.99,,2013-08-05 15:49:00,
2013-08-05 07:54:00,49.0,48.9,0.00,SW,228,1.0,-999.0,99,0.00,,,-99.99,,2013-08-05 15:54:00,
2013-08-05 07:58:00,49.0,49.0,0.00,West,268,0.9,-999.0,99,0.00,,,-99.99,,2013-08-05 15:58:00,
2013-08-05 08:04:00,49.0,49.0,0.00,East,99,1.4,-999.0,99,0.00,,,-99.99,,2013-08-05 16:04:00,
2013-08-05 08:09:00,49.2,49.2,0.00,ENE,65,2.7,-999.0,99,0.00,,,-99.99,,2013-08-05 16:09:00,
2013-08-05 08:13:00,49.3,49.2,0.00,NW,322,1.5,-999.0,99,0.00,,,-99.99,,2013-08-05 16:13:00,
2013-08-05 08:19:00,49.2,49.1,0.00,NNW,337,4.0,-999.0,99,0.00,,,-99.99,,2013-08-05 16:19:00,
2013-08-05 08:24:00,49.3,49.3,0.00,NE,42,5.0,-999.0,99,0.00,,,-99.99,,2013-08-05 16:24:00,
2013-08-05 08:28:00,49.3,49.3,0.00,North,351,2.7,-999.0,99,0.00,,,-99.99,,2013-08-05 16:28:00,
2013-08-05 08:34:00,49.4,49.4,0.00,NNW,327,6.1,-999.0,99,0.00,,,-99.99,,2013-08-05 16:34:00,
2013-08-05 08:41:00,49.5,49.5,0.00,NNE,19,4.4,-999.0,99,0.00,,,-99.99,,2013-08-05 16:41:00,
2013-08-05 08:46:00,49.3,49.3,0.00,WSW,253,4.6,-999.0,99,0.00,,,-99.99,,2013-08-05 16:46:00,
2013-08-05 08:51:00,49.4,49.4,0.00,NNE,18,1.4,-999.0,99,0.00,,,-99.99,,2013-08-05 16:51:00,
2013-08-05 08:59:00,49.2,49.2,0.00,NW,318,1.3,-999.0,99,0.00,,,-99.99,,2013-08-05 16:59:00,
2013-08-05 09:04:00,49.1,49.1,0.00,NNE,13,0.3,-999.0,99,0.00,,,-99.99,,2013-08-05 17:04:00,
2013-08-05 09:12:00,49.0,49.0,0.00,East,95,2.3,-999.0,99,0.00,,,-99.99,,2013-08-05 17:12:00,
2013-08-05 09:17:00,49.3,49.3,0.00,North,4,1.7,-999.0,99,0.00,,,-99.99,,2013-08-05 17:17:00,
2013-08-05 09:23:00,49.4,49.3,0.00,WNW,293,0.8,-999.0,99,0.00,,,-99.99,,2013-08-05 17:23:00,
2013-08-05 09:31:00,49.7,49.7,0.00,NE,51,1.5,-999.0,99,0.00,,,-99.99,,2013-08-05 17:31:00,
2013-08-05 09:36:00,49.6,49.6,0.00,ENE,57,0.8,-999.0,99,0.01,,,-99.99,,2013-08-05 17:36:00,
2013-08-05 09:41:00,49.8,49.8,0.00,NNW,333,2.8,-999.0,99,0.01,,,-99.99,,2013-08-05 17:41:00,
2013-08-05 09:48:00,49.9,49.9,0.00,NNE,16,2.7,-999.0,99,0.01,,,-99.99,,2013-08-05 17:48:00,
2013-08-05 09:57:00,49.8,49.8,0.00,East,79,2.8,-999.0,99,0.01,,,-99.99,,2013-08-05 17:57:00,
2013-08-05 10:02:00,49.8,49.8,0.00,NNE,24,1.8,-999.0,99,0.00,,,-99.99,,2013-08-05 18:02:00,
2013-08-05 10:08:00,49.8,49.8,0.00,East,82,6.2,-999.0,99,0.00,,,-99.99,,2013-08-05 18:08:00,
2013-08-05 10:15:00,49.8,49.7,0.00,NNW,336,2.7,-999.0,99,0.00,,,-99.99,,2013-08-05 18:15:00,
2013-08-05 10:25:00,49.9,49.9,0.00,East,84,2.2,-999.0,99,0.00,,,-99.99,,2013-08-05 18:25:00,
2013-08-05 10:30:00,49.8,49.8,0.00,SW,230,4.4,-999.0,99,0.00,,,-99.99,,2013-08-05 18:30:00,
2013-08-05 10:35:00,50.0,49.9,0.00,North,9,3.1,-999.0,99,0.00,,,-99.99,,2013-08-05 18:35:00,
2013-08-05 10:40:00,49.8,49.8,0.00,NE,48,3.3,-999.0,99,0.01,,,-99.99,,2013-08-05 18:40:00,
2013-08-05 10:45:00,49.7,49.7,0.00,NNE,22,2.6,-999.0,99,0.01,,,-99.99,,2013-08-05 18:45:00,
2013-08-05 10:54:00,50.0,49.9,0.00,NE,37,1.0,-999.0,99,0.01,,,-99.99,,2013-08-05 18:54:00,
2013-08-05 10:59:00,50.0,50.0,0.00,NE,49,4.5,-999.0,99,0.01,,,-99.99,,2013-08-05 18:59:00,
2013-08-05 11:04:00,50.0,49.9,0.00,NNE,19,4.0,-999.0,99,0.00,,,-99.99,,2013-08-05 19:04:00,
2013-08-05 11:11:00,49.8,49.8,0.00,ENE,67,3.5,-999.0,99,0.01,,,-99.99,,2013-08-05 19:11:00,
2013-08-05 11:17:00,49.7,49.7,0.00,East,89,1.5,-999.0,99,0.01,,,-99.99,,2013-08-05 19:17:00,
2013-08-05 11:22:00,49.7,49.6,0.00,North,349,3.0,-999.0,99,0.01,,,-99.99,,2013-08-05 19:22:00,
2013-08-05 11:29:00,49.7,49.7,0.00,ENE,64,3.0,-999.0,99,0.01,,,-99.99,,2013-08-05 19:29:00,
2013-08-05 11:38:00,50.0,50.0,0.00,ENE,64,2.8,-999.0,99,0.01,,,-99.99,,2013-08-05 19:38:00,
2013-08-05 11:43:00,49.9,49.9,0.00,NE,36,5.0,-999.0,99,0.02,,,-99.99,,2013-08-05 19:43:00,
2013-08-05 11:50:00,50.0,50.0,0.00,East,82,3.0,-999.0,99,0.03,,,-99.99,,2013-08-05 19:50:00,
2013-08-05 11:55:00,49.8,49.8,0.00,NW,310,2.8,-999.0,99,0.03,,,-99.99,,2013-08-05 19:55:00,
2013-08-05 12:00:00,49.8,49.8,0.00,NNE,23,4.9,-999.0,99,0.00,,,-99.99,,2013-08-05 20:00:00,
2013-08-05 12:05:00,49.8,49.8,0.00,South,187,1.7,-999.0,99,0.00,,,-99.99,,2013-08-05 20:05:00,
2013-08-05 12:10:00,49.4,49.4,0.00,WNW,289,3.2,-999.0,99,0.00,,,-99.99,,2013-08-05 20:10:00,
2013-08-05 12:15:00,49.6,49.5,0.00,NW,310,0.8,-999.0,99,0.01,,,-99.99,,2013-08-05 20:15:00,
2013-08-05 12:22:00,49.7,49.7,0.00,North,9,2.2,-999.0,99,0.01,,,-99.99,,2013-08-05 20:22:00,
2013-08-05 12:28:00,49.7,49.7,0.00,NNE,33,5.0,-999.0,99,0.01,,,-99.99,,2013-08-05 20:28:00,
2013-08-05 12:37:00,49.7,49.7,0.00,NE,51,4.9,-999.0,99,0.02,,,-99.99,,2013-08-05 20:37:00,
2013-08-05 12:43:00,49.7,49.7,0.00,North,4,3.6,-999.0,99,0.02,,,-99.99,,2013-08-05 20:43:00,
2013-08-05 12:49:00,49.5,49.5,0.00,North,6,2.6,-999.0,99,0.02,,,-99.99,,2013-08-05 20:49:00,
2013-08-05 12:54:00,49.5,49.5,0.00,NNE,33,3.6,-999.0,99,0.02,,,-99.99,,2013-08-05 20:54:00,
2013-08-05 13:07:00,49.7,49.6,0.00,WSW,253,2.9,-999.0,99,0.00,,,-99.99,,2013-08-05 21:07:00,
2013-08-05 13:12:00,49.8,49.8,0.00,ENE,74,3.9,-999.0,99,0.00,,,-99.99,,2013-08-05 21:12:00,
2013-08-05 13:17:00,49.8,49.8,0.00,NNE,16,1.7,-999.0,99,0.00,,,-99.99,,2013-08-05 21:17:00,
2013-08-05 13:23:00,49.8,49.7,0.00,WNW,299,5.7,-999.0,99,0.00,,,-99.99,,2013-08-05 21:23:00,
2013-08-05 13:29:00,49.9,49.0,0.00,WSW,240,0.9,-999.0,100,0.00,,,-99.99,,2013-08-05 21:29:00,
2013-08-05 13:34:00,49.8,49.8,0.00,NW,307,4.4,-999.0,99,0.00,,,-99.99,,2013-08-05 21:34:00,
2013-08-05 13:39:00,49.7,49.7,0.00,ESE,112,4.3,-999.0,99,0.00,,,-99.99,,2013-08-05 21:39:00,
2013-08-05 13:44:00,49.8,49.8,0.00,NE,37,3.5,-999.0,99,0.00,,,-99.99,,2013-08-05 21:44:00,
2013-08-05 13:50:00,49.8,49.7,0.00,West,265,2.4,-999.0,99,0.00,,,-99.99,,2013-08-05 21:50:00,
2013-08-05 13:55:00,49.8,49.7,0.00,SSE,166,6.4,-999.0,99,0.00,,,-99.99,,2013-08-05 21:55:00,
2013-08-05 14:02:00,49.7,49.7,0.00,SSE,154,1.1,-999.0,99,0.00,,,-99.99,,2013-08-05 22:02:00,
2013-08-05 14:07:00,49.7,49.7,0.00,NNW,336,4.5,-999.0,99,0.00,,,-99.99,,2013-08-05 22:07:00,
2013-08-05 14:12:00,49.7,49.7,0.00,NW,320,1.4,-999.0,99,0.00,,,-99.99,,2013-08-05 22:12:00,
2013-08-05 14:18:00,49.6,49.5,0.00,WNW,303,6.2,-999.0,99,0.00,,,-99.99,,2013-08-05 22:18:00,
2013-08-05 14:24:00,49.7,49.7,0.00,NNE,19,3.2,-999.0,99,0.01,,,-99.99,,2013-08-05 22:24:00,
2013-08-05 14:29:00,49.7,49.7,0.00,NE,53,3.1,-999.0,99,0.01,,,-99.99,,2013-08-05 22:29:00,
2013-08-05 14:36:00,49.6,49.5,0.00,West,265,1.1,-999.0,99,0.01,,,-99.99,,2013-08-05 22:36:00,
2013-08-05 14:41:00,49.3,49.3,0.00,East,96,4.9,-999.0,99,0.01,,,-99.99,,2013-08-05 22:41:00,
2013-08-05 14:46:00,49.5,49.5,0.00,North,8,3.8,-999.0,99,0.01,,,-99.99,,2013-08-05 22:46:00,
2013-08-05 14:52:00,49.5,49.5,0.00,NE,47,3.2,-999.0,99,0.02,,,-99.99,,2013-08-05 22:52:00,
2013-08-05 14:57:00,49.5,49.5,0.00,WSW,248,4.5,-999.0,99,0.02,,,-99.99,,2013-08-05 22:57:00,
2013-08-05 15:02:00,49.6,49.5,0.00,NW,320,2.5,-999.0,99,0.00,,,-99.99,,2013-08-05 23:02:00,
2013-08-05 15:08:00,49.4,49.4,0.00,SW,232,1.6,-999.0,99,0.00,,,-99.99,,2013-08-05 23:08:00,
2013-08-05 15:14:00,49.6,49.5,0.00,NW,322,2.7,-999.0,99,0.00,,,-99.99,,2013-08-05 23:14:00,
2013-08-05 15:19:00,49.5,49.5,0.00,NW,319,3.8,-999.0,99,0.01,,,-99.99,,2013-08-05 23:19:00,
2013-08-05 15:24:00,49.5,49.4,0.00,North,5,1.0,-999.0,99,0.01,,,-99.99,,2013-08-05 23:24:00,
2013-08-05 15:29:00,49.4,49.4,0.00,ENE,64,1.3,-999.0,99,0.01,,,-99.99,,2013-08-05 23:29:00,
2013-08-05 15:34:00,49.3,49.3,0.00,East,85,3.3,-999.0,99,0.01,,,-99.99,,2013-08-05 23:34:00,
2013-08-05 15:39:00,49.3,49.3,0.00,North,6,6.5,-999.0,99,0.01,,,-99.99,,2013-08-05 23:39:00,
2013-08-05 15:44:00,49.3,49.2,0.00,SSE,150,3.7,-999.0,99,0.02,,,-99.99,,2013-08-05 23:44:00,
2013-08-05 15:51:00,49.4,49.4,0.00,WSW,247,2.8,-999.0,99,0.04,,,-99.99,,2013-08-05 23:51:00,
2013-08-05 15:56:00,49.6,49.6,0.00,North,0,2.0,-999.0,99,0.05,,,-99.99,,2013-08-05 23:56:00,
2013-08-05 16:02:00,49.5,49.4,0.00,ESE,117,3.5,-999.0,99,0.00,,,-99.99,,2013-08-06 00:02:00,
2013-08-05 16:09:00,49.5,49.5,0.00,SSE,147,5.0,-999.0,99,0.02,,,-99.99,,2013-08-06 00:09:00,
2013-08-05 16:15:00,49.4,49.3,0.00,WNW,283,5.0,-999.0,99,0.03,,,-99.99,,2013-08-06 00:15:00,
2013-08-05 16:21:00,49.5,49.5,0.00,WSW,245,9.8,-999.0,99,0.04,,,-99.99,,2013-08-06 00:21:00,
2013-08-05 16:26:00,49.4,49.4,0.00,SSE,165,0.3,-999.0,99,0.04,,,-99.99,,2013-08-06 00:26:00,
2013-08-05 16:31:00,49.5,49.5,0.00,WSW,256,1.7,-999.0,99,0.04,,,-99.99,,2013-08-06 00:31:00,
2013-08-05 16:36:00,49.3,49.3,0.00,NNW,333,1.0,-999.0,99,0.04,,,-99.99,,2013-08-06 00:36:00,
2013-08-05 16:41:00,49.4,49.4,0.00,NE,45,2.6,-999.0,99,0.05,,,-99.99,,2013-08-06 00:41:00,
2013-08-05 16:48:00,49.3,49.3,0.00,NNW,330,5.5,-999.0,99,0.05,,,-99.99,,2013-08-06 00:48:00,
2013-08-05 16:53:00,49.2,49.2,0.00,North,7,4.5,-999.0,99,0.06,,,-99.99,,2013-08-06 00:53:00,
2013-08-05 16:58:00,49.4,49.3,0.00,WNW,295,3.0,-999.0,99,0.06,,,-99.99,,2013-08-06 00:58:00,
2013-08-05 17:03:00,49.5,49.4,0.00,SSE,149,5.9,-999.0,99,0.01,,,-99.99,,2013-08-06 01:03:00,
2013-08-05 17:08:00,49.4,49.3,0.00,NE,36,4.3,-999.0,99,0.01,,,-99.99,,2013-08-06 01:08:00,
2013-08-05 17:13:00,49.5,49.5,0.00,South,176,1.6,-999.0,99,0.01,,,-99.99,,2013-08-06 01:13:00,
2013-08-05 17:19:00,49.7,49.7,0.00,NNE,31,6.6,-999.0,99,0.01,,,-99.99,,2013-08-06 01:19:00,
2013-08-05 17:24:00,50.0,49.9,0.00,South,176,2.4,-999.0,99,0.02,,,-99.99,,2013-08-06 01:24:00,
2013-08-05 17:29:00,49.8,49.7,0.00,SSW,198,2.5,-999.0,99,0.02,,,-99.99,,2013-08-06 01:29:00,
2013-08-05 17:35:00,50.1,50.0,0.00,WSW,257,5.2,-999.0,99,0.03,,,-99.99,,2013-08-06 01:35:00,
2013-08-05 17:41:00,50.2,50.1,0.00,North,3,4.2,-999.0,99,0.03,,,-99.99,,2013-08-06 01:41:00,
2013-08-05 17:46:00,50.0,50.0,0.00,NE,41,2.9,-999.0,99,0.04,,,-99.99,,2013-08-06 01:46:00,
2013-08-05 17:51:00,50.2,50.2,0.00,West,271,1.5,-999.0,99,0.04,,,-99.99,,2013-08-06 01:51:00,
2013-08-05 18:00:00,50.2,50.2,0.00,WSW,237,5.6,-999.0,99,0.00,,,-99.99,,2013-08-06 02:00:00,
2013-08-05 18:05:00,50.1,50.1,0.00,NNE,26,3.7,-999.0,99,0.00,,,-99.99,,2013-08-06 02:05:00,
2013-08-05 18:10:00,50.0,49.9,0.00,West,279,5.8,-999.0,99,0.00,,,-99.99,,2013-08-06 02:10:00,
2013-08-05 18:15:00,50.0,49.9,0.00,NNW,330,4.5,-999.0,99,0.00,,,-99.99,,2013-08-06 02:15:00,
2013-08-05 18:21:00,50.0,49.9,0.00,NNW,329,4.2,-999.0,99,0.01,,,-99.99,,2013-08-06 02:21:00,
2013-08-05 18:29:00,49.8,49.7,0.00,West,274,15.3,-999.0,99,0.01,,,-99.99,,2013-08-06 02:29:00,
2013-08-05 18:34:00,49.7,49.7,0.00,North,2,3.0,-999.0,99,0.02,,,-99.99,,2013-08-06 02:34:00,
2013-08-05 18:39:00,49.9,49.9,0.00,WSW,243,2.0,-999.0,99,0.02,,,-99.99,,2013-08-06 02:39:00,
2013-08-05 18:46:00,49.7,49.7,0.00,West,273,10.4,-999.0,99,0.03,,,-99.99,,2013-08-06 02:46:00,
2013-08-05 18:52:00,49.8,49.8,0.00,WSW,250,13.9,-999.0,99,0.04,,,-99.99,,2013-08-06 02:52:00,
2013-08-05 18:57:00,49.6,49.5,0.00,WSW,247,6.1,-999.0,99,0.05,,,-99.99,,2013-08-06 02:57:00,
2013-08-05 19:02:00,49.7,49.7,0.00,West,267,11.5,-999.0,99,0.01,,,-99.99,,2013-08-06 03:02:00,
2013-08-05 19:07:00,49.8,49.8,0.00,WNW,302,11.9,-999.0,99,0.01,,,-99.99,,2013-08-06 03:07:00,
2013-08-05 19:15:00,49.8,49.8,0.00,NW,305,12.6,-999.0,99,0.02,,,-99.99,,2013-08-06 03:15:00,
2013-08-05 19:20:00,49.7,49.7,0.00,East,81,7.5,-999.0,99,0.04,,,-99.99,,2013-08-06 03:20:00,
2013-08-05 19:27:00,49.8,49.8,0.00,East,92,2.0,-999.0,99,0.07,,,-99.99,,2013-08-06 03:27:00,
2013-08-05 19:33:00,49.7,49.7,0.00,North,10,3.0,-999.0,99,0.07,,,-99.99,,2013-08-06 03:33:00,
2013-08-05 19:39:00,49.7,49.7,0.00,NW,320,11.5,-999.0,99,0.14,,,-99.99,,2013-08-06 03:39:00,
2013-08-05 19:45:00,49.7,49.6,0.00,NNW,341,6.9,-999.0,99,0.14,,,-99.99,,2013-08-06 03:45:00,
2013-08-05 19:52:00,49.4,49.3,0.00,NW,323,3.2,-999.0,99,0.16,,,-99.99,,2013-08-06 03:52:00,
2013-08-05 19:57:00,49.1,49.1,0.00,NNE,26,4.2,-999.0,99,0.17,,,-99.99,,2013-08-06 03:57:00,
2013-08-05 20:02:00,49.3,49.3,0.00,NE,36,1.8,-999.0,99,0.00,,,-99.99,,2013-08-06 04:02:00,
2013-08-05 20:03:00,49.2,49.2,0.00,East,99,7.6,-999.0,99,0.00,,,-99.99,,2013-08-06 04:03:00,
2013-08-05 20:04:00,49.1,49.1,0.00,ENE,70,1.1,-999.0,99,0.00,,,-99.99,,2013-08-06 04:04:00,
2013-08-05 20:06:00,49.1,49.1,0.00,West,270,1.6,-999.0,99,0.00,,,-99.99,,2013-08-06 04:06:00,
2013-08-05 20:07:00,49.0,48.9,0.00,SE,140,3.6,-999.0,99,0.00,,,-99.99,,2013-08-06 04:07:00,
2013-08-05 20:12:00,48.9,48.9,0.00,NE,51,2.0,-999.0,99,0.00,,,-99.99,,2013-08-06 04:12:00,
2013-08-05 20:17:00,49.0,49.0,0.00,NE,49,4.7,-999.0,99,0.02,,,-99.99,,2013-08-06 04:17:00,
2013-08-05 20:22:00,48.9,48.8,0.00,WNW,290,0.6,-999.0,99,0.02,,,-99.99,,2013-08-06 04:22:00,
2013-08-05 20:27:00,48.8,48.8,0.00,North,9,1.2,-999.0,99,0.02,,,-99.99,,2013-08-06 04:27:00,
2013-08-05 20:32:00,48.8,48.8,0.00,East,86,7.8,-999.0,99,0.02,,,-99.99,,2013-08-06 04:32:00,
2013-08-05 20:37:00,48.9,48.8,0.00,NW,309,8.3,-999.0,99,0.02,,,-99.99,,2013-08-06 04:37:00,
2013-08-05 20:42:00,49.0,49.0,0.00,WNW,299,6.7,-999.0,99,0.03,,,-99.99,,2013-08-06 04:42:00,
2013-08-05 20:47:00,49.1,49.1,0.00,NE,38,6.4,-999.0,99,0.04,,,-99.99,,2013-08-06 04:47:00,
2013-08-05 20:52:00,48.9,48.9,0.00,NNE,27,2.3,-999.0,99,0.04,,,-99.99,,2013-08-06 04:52:00,
2013-08-05 20:58:00,49.1,49.0,0.00,NE,52,10.2,-999.0,99,0.06,,,-99.99,,2013-08-06 04:58:00,
2013-08-05 21:03:00,49.1,49.0,0.00,NNW,330,2.2,-999.0,100,0.01,,,-99.99,,2013-08-06 05:03:00,
2013-08-05 21:08:00,49.0,49.0,0.00,WSW,244,5.0,-999.0,99,0.01,,,-99.99,,2013-08-06 05:08:00,
2013-08-05 21:13:00,49.0,49.0,0.00,North,350,5.5,-999.0,99,0.02,,,-99.99,,2013-08-06 05:13:00,
2013-08-05 21:18:00,49.0,49.0,0.00,NNE,33,2.4,-999.0,100,0.03,,,-99.99,,2013-08-06 05:18:00,
2013-08-05 21:23:00,48.9,48.9,0.00,North,349,13.9,-999.0,99,0.04,,,-99.99,,2013-08-06 05:23:00,
2013-08-05 21:28:00,48.9,48.8,0.00,WSW,257,6.6,-999.0,99,0.04,,,-99.99,,2013-08-06 05:28:00,
2013-08-05 21:33:00,48.9,48.8,0.00,WSW,239,9.8,-999.0,99,0.05,,,-99.99,,2013-08-06 05:33:00,
2013-08-05 21:38:00,49.0,49.0,0.00,WNW,286,8.7,-999.0,99,0.05,,,-99.99,,2013-08-06 05:38:00,
2013-08-05 21:43:00,49.1,49.0,0.00,South,186,6.6,-999.0,99,0.11,,,-99.99,,2013-08-06 05:43:00,
2013-08-05 21:48:00,48.9,48.9,0.00,West,259,20.4,-999.0,99,0.20,,,-99.99,,2013-08-06 05:48:00,
2013-08-05 21:53:00,48.9,48.8,0.00,NNW,339,1.6,-999.0,99,0.20,,,-99.99,,2013-08-06 05:53:00,
2013-08-05 21:58:00,48.9,48.9,0.00,North,354,3.8,-999.0,99,0.44,,,-99.99,,2013-08-06 05:58:00,
2013-08-05 22:03:00,48.8,48.0,0.00,WNW,284,9.2,-999.0,100,0.01,,,-99.99,,2013-08-06 06:03:00,
2013-08-05 22:08:00,48.8,48.0,0.00,West,275,6.3,-999.0,100,0.02,,,-99.99,,2013-08-06 06:08:00,
2013-08-05 22:13:00,48.8,48.8,0.00,West,263,21.2,-999.0,99,0.05,,,-99.99,,2013-08-06 06:13:00,
2013-08-05 22:18:00,48.8,48.8,0.00,North,5,7.8,-999.0,99,0.09,,,-99.99,,2013-08-06 06:18:00,
2013-08-05 22:23:00,48.9,48.8,0.00,WSW,241,10.5,-999.0,99,0.10,,,-99.99,,2013-08-06 06:23:00,
2013-08-05 22:28:00,48.8,48.0,0.00,WNW,300,14.0,-999.0,100,0.10,,,-99.99,,2013-08-06 06:28:00,
2013-08-05 22:33:00,48.8,48.0,0.00,West,264,18.2,-999.0,100,0.23,,,-99.99,,2013-08-06 06:33:00,
2013-08-05 22:38:00,48.8,48.7,0.00,West,266,17.1,-999.0,99,0.24,,,-99.99,,2013-08-06 06:38:00,
2013-08-05 22:43:00,48.9,48.8,0.00,North,6,4.6,-999.0,100,0.45,,,-99.99,,2013-08-06 06:43:00,
2013-08-05 22:48:00,48.8,48.7,0.00,North,2,9.6,-999.0,100,0.46,,,-99.99,,2013-08-06 06:48:00,
2013-08-05 22:53:00,48.8,48.7,0.00,West,265,24.3,-999.0,99,0.46,,,-99.99,,2013-08-06 06:53:00,
2013-08-05 22:58:00,48.8,48.0,0.00,West,259,20.5,-999.0,100,0.50,,,-99.99,,2013-08-06 06:58:00,
2013-08-05 23:03:00,48.8,48.0,0.00,West,276,30.6,-999.0,100,0.03,,,-99.99,,2013-08-06 07:03:00,
2013-08-05 23:08:00,48.8,48.7,0.00,West,267,24.9,-999.0,99,0.09,,,-99.99,,2013-08-06 07:08:00,
2013-08-05 23:13:00,48.7,48.0,0.00,West,280,17.6,-999.0,100,0.10,,,-99.99,,2013-08-06 07:13:00,
2013-08-05 23:18:00,48.7,48.0,0.00,WSW,243,10.5,-999.0,100,0.84,,,-99.99,,2013-08-06 07:18:00,
2013-08-05 23:23:00,48.8,48.7,0.00,SW,228,6.8,-999.0,99,1.01,,,-99.99,,2013-08-06 07:23:00,
2013-08-05 23:28:00,48.7,48.0,0.00,West,273,34.0,-999.0,100,1.09,,,-99.99,,2013-08-06 07:28:00,
2013-08-05 23:33:00,48.7,48.7,0.00,WNW,286,25.7,-999.0,99,1.16,,,-99.99,,2013-08-06 07:33:00,
2013-08-05 23:38:00,48.7,48.7,0.00,NW,309,9.3,-999.0,99,1.58,,,-99.99,,2013-08-06 07:38:00,
2013-08-05 23:43:00,48.7,48.0,0.00,WNW,290,19.2,-999.0,100,1.71,,,-99.99,,2013-08-06 07:43:00,
2013-08-05 23:48:00,48.7,48.6,0.00,SW,226,21.2,-999.0,99,2.23,,,-99.99,,2013-08-06 07:48:00,
2013-08-05 23:53:00,48.7,48.7,0.00,WNW,288,26.4,-999.0,99,2.38,,,-99.99,,2013-08-06 07:53:00,
2013-08-05 23:58:00,48.7,48.0,0.00,WNW,284,30.2,-999.0,100,2.54,,,-99.99,,2013-08-06 07:58:00,